createdAt,value
2017-05-16T00:00:03.258Z,16.39
2017-05-16T00:01:12.307Z,16.35
2017-05-16T00:02:21.520Z,16.41
2017-05-16T00:03:31.063Z,16.38
2017-05-16T00:04:40.293Z,16.31
2017-05-16T00:05:49.200Z,16.34
2017-05-16T00:06:58.151Z,16.39
2017-05-16T00:08:07.053Z,16.34
2017-05-16T00:09:16.929Z,16.33
2017-05-16T00:10:25.823Z,16.34
2017-05-16T00:11:34.718Z,16.38
2017-05-16T00:12:44.087Z,16.3
2017-05-16T00:13:53.315Z,16.34
2017-05-16T00:15:02.535Z,16.34
2017-05-16T00:16:11.772Z,16.28
2017-05-16T00:17:20.673Z,16.34
2017-05-16T00:18:29.672Z,16.34
2017-05-16T00:19:38.571Z,16.28
2017-05-16T00:20:47.470Z,16.34
2017-05-16T00:21:56.686Z,16.28
2017-05-16T00:23:05.582Z,16.33
2017-05-16T00:24:14.590Z,16.3
2017-05-16T00:25:24.137Z,16.28
2017-05-16T00:26:33.034Z,16.3
2017-05-16T00:27:41.933Z,16.25
2017-05-16T00:28:51.150Z,16.24
2017-05-16T00:30:00.528Z,16.28
2017-05-16T00:31:09.748Z,16.27
2017-05-16T00:32:19.298Z,16.27
2017-05-16T00:33:28.196Z,16.25
2017-05-16T00:34:37.091Z,16.25
2017-05-16T00:35:46.468Z,16.27
2017-05-16T00:36:55.364Z,16.23
2017-05-16T00:38:04.907Z,16.28
2017-05-16T00:39:14.133Z,16.27
2017-05-16T00:40:23.353Z,16.28
2017-05-16T00:41:32.626Z,16.27
2017-05-16T00:42:41.850Z,16.21
2017-05-16T00:43:50.754Z,16.25
2017-05-16T00:44:59.652Z,16.24
2017-05-16T00:46:08.546Z,16.25
2017-05-16T00:47:18.392Z,16.23
2017-05-16T00:48:27.284Z,16.23
2017-05-16T00:49:36.235Z,16.24
2017-05-16T00:50:45.134Z,16.2
2017-05-16T00:51:54.351Z,16.15
2017-05-16T00:53:03.301Z,16.24
2017-05-16T00:54:12.196Z,16.12
2017-05-16T00:55:21.417Z,16.09
2017-05-16T00:56:30.639Z,16.11
2017-05-16T00:57:40.203Z,16.15
2017-05-16T00:58:49.901Z,16.24
2017-05-16T00:59:58.798Z,16.25
2017-05-16T01:01:08.029Z,16.27
2017-05-16T01:02:17.249Z,16.24
2017-05-16T01:03:27.123Z,16.31
2017-05-16T01:04:36.923Z,16.27
2017-05-16T01:05:46.149Z,16.25
2017-05-16T01:06:56.023Z,16.27
2017-05-16T01:08:04.916Z,16.25
2017-05-16T01:09:13.813Z,16.24
2017-05-16T01:10:22.762Z,16.25
2017-05-16T01:11:31.979Z,16.21
2017-05-16T01:12:41.205Z,16.12
2017-05-16T01:13:50.759Z,16.15
2017-05-16T01:14:59.650Z,16.07
2017-05-16T01:16:09.193Z,16.14
2017-05-16T01:17:18.087Z,16.09
2017-05-16T01:18:27.311Z,16.08
2017-05-16T01:19:36.874Z,16.04
2017-05-16T01:20:46.094Z,16.07
2017-05-16T01:21:55.145Z,16.08
2017-05-16T01:23:04.372Z,16.02
2017-05-16T01:24:13.593Z,16.14
2017-05-16T01:25:22.484Z,16.08
2017-05-16T01:26:31.702Z,16.04
2017-05-16T01:27:40.664Z,15.96
2017-05-16T01:28:49.889Z,16.04
2017-05-16T01:29:59.766Z,16.04
2017-05-16T01:31:08.987Z,15.93
2017-05-16T01:32:17.884Z,15.97
2017-05-16T01:33:26.930Z,16
2017-05-16T01:34:36.157Z,15.97
2017-05-16T01:35:45.377Z,15.97
2017-05-16T01:36:54.276Z,15.93
2017-05-16T01:38:03.828Z,15.96
2017-05-16T01:39:13.675Z,15.94
2017-05-16T01:40:22.900Z,15.97
2017-05-16T01:41:31.792Z,15.97
2017-05-16T01:42:41.342Z,15.97
2017-05-16T01:43:50.566Z,15.96
2017-05-16T01:45:00.443Z,16.09
2017-05-16T01:46:09.988Z,16.05
2017-05-16T01:47:18.886Z,16.05
2017-05-16T01:48:27.783Z,15.9
2017-05-16T01:49:36.686Z,15.93
2017-05-16T01:50:46.009Z,16.01
2017-05-16T01:51:55.234Z,15.97
2017-05-16T01:53:04.133Z,16.01
2017-05-16T01:54:13.357Z,16.01
2017-05-16T01:55:22.250Z,16
2017-05-16T01:56:31.403Z,15.97
2017-05-16T01:57:40.623Z,16.01
2017-05-16T01:58:50.174Z,16.01
2017-05-16T01:59:59.725Z,15.92
2017-05-16T02:01:09.273Z,15.97
2017-05-16T02:02:19.543Z,15.9
2017-05-16T02:03:28.767Z,16
2017-05-16T02:04:37.989Z,16.01
2017-05-16T02:05:47.214Z,15.93
2017-05-16T02:06:56.440Z,16.01
2017-05-16T02:08:06.463Z,15.93
2017-05-16T02:09:15.684Z,15.93
2017-05-16T02:10:24.913Z,16.02
2017-05-16T02:11:33.811Z,15.96
2017-05-16T02:12:43.375Z,16.02
2017-05-16T02:13:52.649Z,16.05
2017-05-16T02:15:01.874Z,15.96
2017-05-16T02:16:11.093Z,15.94
2017-05-16T02:17:19.991Z,16
2017-05-16T02:18:29.210Z,15.93
2017-05-16T02:19:38.107Z,16
2017-05-16T02:20:47.001Z,15.94
2017-05-16T02:21:56.218Z,15.94
2017-05-16T02:23:05.439Z,15.9
2017-05-16T02:24:14.677Z,15.94
2017-05-16T02:25:24.276Z,15.96
2017-05-16T02:26:33.173Z,15.94
2017-05-16T02:27:42.075Z,15.94
2017-05-16T02:28:51.301Z,15.93
2017-05-16T02:30:00.850Z,16.01
2017-05-16T02:31:09.798Z,15.92
2017-05-16T02:32:18.691Z,15.92
2017-05-16T02:33:27.928Z,15.93
2017-05-16T02:34:37.474Z,15.87
2017-05-16T02:35:46.694Z,15.97
2017-05-16T02:36:55.694Z,15.87
2017-05-16T02:38:05.239Z,15.89
2017-05-16T02:39:14.780Z,15.94
2017-05-16T02:40:24.001Z,15.89
2017-05-16T02:41:33.605Z,15.93
2017-05-16T02:42:43.884Z,15.92
2017-05-16T02:43:53.106Z,15.94
2017-05-16T02:45:02.335Z,16
2017-05-16T02:46:11.551Z,15.93
2017-05-16T02:47:21.425Z,16
2017-05-16T02:48:30.700Z,16.07
2017-05-16T02:49:39.619Z,15.92
2017-05-16T02:50:49.173Z,15.96
2017-05-16T02:51:58.391Z,15.9
2017-05-16T02:53:07.298Z,15.87
2017-05-16T02:54:16.676Z,15.86
2017-05-16T02:55:26.223Z,15.9
2017-05-16T02:56:35.443Z,15.83
2017-05-16T02:57:44.689Z,15.87
2017-05-16T02:58:53.914Z,15.9
2017-05-16T03:00:03.342Z,15.93
2017-05-16T03:01:12.241Z,15.9
2017-05-16T03:02:21.141Z,15.9
2017-05-16T03:03:30.362Z,15.94
2017-05-16T03:04:39.582Z,15.96
2017-05-16T03:05:48.956Z,15.9
2017-05-16T03:06:57.898Z,15.89
2017-05-16T03:08:07.120Z,15.86
2017-05-16T03:09:16.341Z,15.86
2017-05-16T03:10:25.571Z,15.89
2017-05-16T03:11:34.620Z,15.86
2017-05-16T03:12:43.520Z,15.84
2017-05-16T03:13:52.422Z,15.89
2017-05-16T03:15:01.647Z,15.89
2017-05-16T03:16:10.873Z,15.9
2017-05-16T03:17:20.243Z,15.83
2017-05-16T03:18:29.467Z,15.82
2017-05-16T03:19:39.010Z,15.78
2017-05-16T03:20:48.235Z,15.83
2017-05-16T03:21:57.451Z,15.83
2017-05-16T03:23:06.822Z,15.82
2017-05-16T03:24:16.375Z,15.76
2017-05-16T03:25:25.606Z,15.78
2017-05-16T03:26:35.159Z,15.69
2017-05-16T03:27:44.384Z,15.72
2017-05-16T03:28:53.432Z,15.67
2017-05-16T03:30:02.980Z,15.71
2017-05-16T03:31:11.873Z,15.68
2017-05-16T03:32:21.090Z,15.68
2017-05-16T03:33:29.985Z,15.71
2017-05-16T03:34:39.303Z,15.65
2017-05-16T03:35:48.849Z,15.67
2017-05-16T03:36:57.743Z,15.74
2017-05-16T03:38:06.638Z,15.71
2017-05-16T03:39:15.536Z,15.78
2017-05-16T03:40:25.485Z,15.76
2017-05-16T03:41:34.383Z,15.8
2017-05-16T03:42:43.288Z,15.71
2017-05-16T03:43:52.835Z,15.76
2017-05-16T03:45:01.736Z,15.76
2017-05-16T03:46:11.606Z,15.74
2017-05-16T03:47:21.159Z,15.76
2017-05-16T03:48:30.054Z,15.75
2017-05-16T03:49:39.272Z,15.8
2017-05-16T03:50:48.495Z,15.8
2017-05-16T03:51:57.865Z,15.8
2017-05-16T03:53:07.090Z,15.72
2017-05-16T03:54:16.639Z,15.65
2017-05-16T03:55:25.536Z,15.64
2017-05-16T03:56:34.759Z,15.69
2017-05-16T03:57:44.506Z,15.71
2017-05-16T03:58:53.406Z,15.64
2017-05-16T04:00:02.959Z,15.67
2017-05-16T04:01:11.850Z,15.69
2017-05-16T04:02:21.073Z,15.69
2017-05-16T04:03:30.455Z,15.62
2017-05-16T04:04:40.009Z,15.6
2017-05-16T04:05:49.230Z,15.51
2017-05-16T04:06:58.126Z,15.54
2017-05-16T04:08:07.723Z,15.6
2017-05-16T04:09:17.747Z,15.56
2017-05-16T04:10:27.299Z,15.57
2017-05-16T04:11:36.188Z,15.53
2017-05-16T04:12:45.736Z,15.62
2017-05-16T04:13:55.613Z,15.59
2017-05-16T04:15:05.310Z,15.59
2017-05-16T04:16:14.539Z,15.62
2017-05-16T04:17:23.767Z,15.54
2017-05-16T04:18:32.986Z,15.56
2017-05-16T04:19:42.254Z,15.65
2017-05-16T04:20:51.773Z,15.64
2017-05-16T04:22:01.646Z,15.65
2017-05-16T04:23:10.866Z,15.56
2017-05-16T04:24:20.745Z,15.59
2017-05-16T04:25:29.971Z,15.6
2017-05-16T04:26:39.294Z,15.65
2017-05-16T04:27:49.170Z,15.68
2017-05-16T04:28:58.721Z,15.69
2017-05-16T04:30:08.267Z,15.69
2017-05-16T04:31:17.536Z,15.64
2017-05-16T04:32:26.955Z,15.68
2017-05-16T04:33:36.176Z,15.69
2017-05-16T04:34:46.104Z,15.71
2017-05-16T04:35:55.331Z,15.65
2017-05-16T04:37:04.229Z,15.65
2017-05-16T04:38:13.974Z,15.68
2017-05-16T04:39:23.850Z,15.65
2017-05-16T04:40:33.070Z,15.62
2017-05-16T04:41:41.978Z,15.57
2017-05-16T04:42:51.526Z,15.54
2017-05-16T04:44:01.076Z,15.53
2017-05-16T04:45:10.305Z,15.53
2017-05-16T04:46:19.206Z,15.65
2017-05-16T04:47:28.428Z,15.54
2017-05-16T04:48:38.300Z,15.56
2017-05-16T04:49:48.001Z,15.57
2017-05-16T04:50:57.543Z,15.57
2017-05-16T04:52:06.764Z,15.54
2017-05-16T04:53:15.985Z,15.53
2017-05-16T04:54:25.543Z,15.57
2017-05-16T04:55:35.040Z,15.5
2017-05-16T04:56:44.260Z,15.53
2017-05-16T04:57:53.156Z,15.56
2017-05-16T04:59:02.708Z,15.53
2017-05-16T05:00:11.935Z,15.53
2017-05-16T05:01:20.828Z,15.53
2017-05-16T05:02:29.731Z,15.56
2017-05-16T05:03:38.988Z,15.56
2017-05-16T05:04:48.211Z,15.57
2017-05-16T05:05:57.754Z,15.51
2017-05-16T05:07:06.982Z,15.59
2017-05-16T05:08:16.203Z,15.57
2017-05-16T05:09:25.422Z,15.71
2017-05-16T05:10:34.979Z,15.56
2017-05-16T05:11:44.534Z,15.6
2017-05-16T05:12:53.761Z,15.59
2017-05-16T05:14:02.989Z,15.59
2017-05-16T05:15:12.219Z,15.59
2017-05-16T05:16:21.118Z,15.62
2017-05-16T05:17:30.669Z,15.57
2017-05-16T05:18:39.577Z,15.59
2017-05-16T05:19:48.481Z,15.64
2017-05-16T05:20:57.700Z,15.68
2017-05-16T05:22:06.935Z,15.75
2017-05-16T05:23:16.161Z,15.68
2017-05-16T05:24:25.710Z,15.71
2017-05-16T05:25:34.941Z,15.69
2017-05-16T05:26:43.988Z,15.72
2017-05-16T05:27:53.534Z,15.67
2017-05-16T05:29:02.760Z,15.62
2017-05-16T05:30:12.305Z,15.64
2017-05-16T05:31:21.198Z,15.59
2017-05-16T05:32:30.242Z,15.54
2017-05-16T05:33:39.475Z,15.53
2017-05-16T05:34:48.696Z,15.57
2017-05-16T05:35:57.593Z,15.62
2017-05-16T05:37:06.490Z,15.6
2017-05-16T05:38:15.542Z,15.62
2017-05-16T05:39:24.474Z,15.56
2017-05-16T05:40:34.034Z,15.6
2017-05-16T05:41:43.506Z,15.64
2017-05-16T05:42:52.729Z,15.53
2017-05-16T05:44:02.258Z,15.56
2017-05-16T05:45:11.540Z,15.67
2017-05-16T05:46:20.766Z,15.65
2017-05-16T05:47:29.660Z,15.68
2017-05-16T05:48:38.880Z,15.74
2017-05-16T05:49:48.155Z,15.65
2017-05-16T05:50:57.373Z,15.71
2017-05-16T05:52:06.598Z,15.68
2017-05-16T05:53:15.820Z,15.71
2017-05-16T05:54:25.365Z,15.72
2017-05-16T05:55:34.644Z,15.68
2017-05-16T05:56:43.918Z,15.65
2017-05-16T05:57:53.141Z,15.62
2017-05-16T05:59:02.690Z,15.62
2017-05-16T06:00:11.914Z,15.62
2017-05-16T06:01:21.339Z,15.51
2017-05-16T06:02:30.238Z,15.5
2017-05-16T06:03:39.453Z,15.53
2017-05-16T06:04:49.405Z,15.54
2017-05-16T06:05:59.277Z,15.56
2017-05-16T06:07:08.376Z,15.44
2017-05-16T06:08:17.602Z,15.38
2017-05-16T06:09:27.153Z,15.36
2017-05-16T06:10:36.048Z,15.38
2017-05-16T06:11:44.952Z,15.39
2017-05-16T06:12:53.951Z,15.49
2017-05-16T06:14:02.866Z,15.49
2017-05-16T06:15:11.762Z,15.49
2017-05-16T06:16:20.657Z,15.38
2017-05-16T06:17:29.552Z,15.39
2017-05-16T06:18:38.658Z,15.39
2017-05-16T06:19:48.211Z,15.43
2017-05-16T06:20:57.758Z,15.39
2017-05-16T06:22:06.978Z,15.46
2017-05-16T06:23:15.878Z,15.41
2017-05-16T06:24:25.850Z,15.46
2017-05-16T06:25:35.095Z,15.46
2017-05-16T06:26:43.996Z,15.41
2017-05-16T06:27:53.224Z,15.53
2017-05-16T06:29:03.479Z,15.49
2017-05-16T06:30:12.711Z,15.5
2017-05-16T06:31:21.937Z,15.53
2017-05-16T06:32:31.220Z,15.54
2017-05-16T06:33:40.120Z,15.54
2017-05-16T06:34:49.023Z,15.56
2017-05-16T06:35:58.702Z,15.54
2017-05-16T06:37:07.594Z,15.62
2017-05-16T06:38:17.232Z,15.71
2017-05-16T06:39:26.464Z,15.54
2017-05-16T06:40:35.688Z,15.62
2017-05-16T06:41:45.285Z,15.56
2017-05-16T06:42:54.507Z,15.53
2017-05-16T06:44:03.730Z,15.56
2017-05-16T06:45:12.628Z,15.59
2017-05-16T06:46:21.849Z,15.64
2017-05-16T06:47:31.218Z,15.64
2017-05-16T06:48:40.439Z,15.67
2017-05-16T06:49:50.032Z,15.74
2017-05-16T06:50:59.278Z,15.75
2017-05-16T06:52:08.174Z,15.74
2017-05-16T06:53:17.084Z,15.8
2017-05-16T06:54:26.307Z,15.82
2017-05-16T06:55:35.531Z,15.72
2017-05-16T06:56:44.807Z,15.86
2017-05-16T06:57:54.360Z,15.8
2017-05-16T06:59:04.637Z,15.86
2017-05-16T07:00:13.874Z,15.93
2017-05-16T07:01:23.095Z,15.93
2017-05-16T07:02:31.999Z,16
2017-05-16T07:03:41.220Z,15.83
2017-05-16T07:04:50.225Z,15.94
2017-05-16T07:05:59.456Z,16
2017-05-16T07:07:08.681Z,15.94
2017-05-16T07:08:17.583Z,15.92
2017-05-16T07:09:27.135Z,15.94
2017-05-16T07:10:36.848Z,15.94
2017-05-16T07:11:45.763Z,16.04
2017-05-16T07:12:55.309Z,16.01
2017-05-16T07:14:04.535Z,16.04
2017-05-16T07:15:13.437Z,16.15
2017-05-16T07:16:22.813Z,16.05
2017-05-16T07:17:31.717Z,16.08
2017-05-16T07:18:40.947Z,16.08
2017-05-16T07:19:50.495Z,16.15
2017-05-16T07:20:59.736Z,16.2
2017-05-16T07:22:09.029Z,16.15
2017-05-16T07:23:17.933Z,16.12
2017-05-16T07:24:27.822Z,16.12
2017-05-16T07:25:37.379Z,16.17
2017-05-16T07:26:46.929Z,16.21
2017-05-16T07:27:56.354Z,16.27
2017-05-16T07:29:05.900Z,16.23
2017-05-16T07:30:14.803Z,16.25
2017-05-16T07:31:24.041Z,16.27
2017-05-16T07:32:33.272Z,16.24
2017-05-16T07:33:42.590Z,16.3
2017-05-16T07:34:51.821Z,16.25
2017-05-16T07:36:00.720Z,16.21
2017-05-16T07:37:09.945Z,16.15
2017-05-16T07:38:19.225Z,16.24
2017-05-16T07:39:28.625Z,16.12
2017-05-16T07:40:37.852Z,16.25
2017-05-16T07:41:46.759Z,16.2
2017-05-16T07:42:55.674Z,16.25
2017-05-16T07:44:05.552Z,16.15
2017-05-16T07:45:14.849Z,16.15
2017-05-16T07:46:23.744Z,16.07
2017-05-16T07:47:32.641Z,16.14
2017-05-16T07:48:42.195Z,16.11
2017-05-16T07:49:51.422Z,16.14
2017-05-16T07:51:00.374Z,16.14
2017-05-16T07:52:09.601Z,16.05
2017-05-16T07:53:18.509Z,16.11
2017-05-16T07:54:28.075Z,15.93
2017-05-16T07:55:37.301Z,15.84
2017-05-16T07:56:46.829Z,15.89
2017-05-16T07:57:55.771Z,15.92
2017-05-16T07:59:04.683Z,15.93
2017-05-16T08:00:13.943Z,15.92
2017-05-16T08:01:23.493Z,15.93
2017-05-16T08:02:32.606Z,15.96
2017-05-16T08:03:42.158Z,15.92
2017-05-16T08:04:51.382Z,15.93
2017-05-16T08:06:00.298Z,15.97
2017-05-16T08:07:09.518Z,15.94
2017-05-16T08:08:18.793Z,15.87
2017-05-16T08:09:27.690Z,15.87
2017-05-16T08:10:37.239Z,15.86
2017-05-16T08:11:46.473Z,15.87
2017-05-16T08:12:55.376Z,15.89
2017-05-16T08:14:04.431Z,15.82
2017-05-16T08:15:13.980Z,15.86
2017-05-16T08:16:22.882Z,15.86
2017-05-16T08:17:31.789Z,15.86
2017-05-16T08:18:41.024Z,15.9
2017-05-16T08:19:50.025Z,15.94
2017-05-16T08:20:59.247Z,15.97
2017-05-16T08:22:08.475Z,15.94
2017-05-16T08:23:17.365Z,16.05
2017-05-16T08:24:26.264Z,16.09
2017-05-16T08:25:35.963Z,16.05
2017-05-16T08:26:44.864Z,16.08
2017-05-16T08:27:54.093Z,16.14
2017-05-16T08:29:02.992Z,16.25
2017-05-16T08:30:12.216Z,16.27
2017-05-16T08:31:21.491Z,16.23
2017-05-16T08:32:30.740Z,16.25
2017-05-16T08:33:39.636Z,16.21
2017-05-16T08:34:48.534Z,16.31
2017-05-16T08:35:57.438Z,16.25
2017-05-16T08:37:07.138Z,16.27
2017-05-16T08:38:16.044Z,16.34
2017-05-16T08:39:24.948Z,16.34
2017-05-16T08:40:34.826Z,16.38
2017-05-16T08:41:44.135Z,16.43
2017-05-16T08:42:53.466Z,16.48
2017-05-16T08:44:02.699Z,16.43
2017-05-16T08:45:11.605Z,16.56
2017-05-16T08:46:20.828Z,16.5
2017-05-16T08:47:30.052Z,16.49
2017-05-16T08:48:39.372Z,16.48
2017-05-16T08:49:48.923Z,16.48
2017-05-16T08:50:58.150Z,16.49
2017-05-16T08:52:07.377Z,16.49
2017-05-16T08:53:16.925Z,16.46
2017-05-16T08:54:26.457Z,16.49
2017-05-16T08:55:35.680Z,16.5
2017-05-16T08:56:44.580Z,16.53
2017-05-16T08:57:53.803Z,16.57
2017-05-16T08:59:03.350Z,16.61
2017-05-16T09:00:12.878Z,16.58
2017-05-16T09:01:22.156Z,16.63
2017-05-16T09:02:31.706Z,16.53
2017-05-16T09:03:41.266Z,16.56
2017-05-16T09:04:50.194Z,16.57
2017-05-16T09:06:00.047Z,16.49
2017-05-16T09:07:09.289Z,16.63
2017-05-16T09:08:18.186Z,16.64
2017-05-16T09:09:27.081Z,16.66
2017-05-16T09:10:36.305Z,16.56
2017-05-16T09:11:45.687Z,16.57
2017-05-16T09:12:54.911Z,16.53
2017-05-16T09:14:04.792Z,16.67
2017-05-16T09:15:13.703Z,16.71
2017-05-16T09:16:22.598Z,16.73
2017-05-16T09:17:31.652Z,16.7
2017-05-16T09:18:40.877Z,16.68
2017-05-16T09:19:50.109Z,16.61
2017-05-16T09:20:59.657Z,16.75
2017-05-16T09:22:08.888Z,16.67
2017-05-16T09:23:18.308Z,16.75
2017-05-16T09:24:27.532Z,16.75
2017-05-16T09:25:36.759Z,16.79
2017-05-16T09:26:45.659Z,16.73
2017-05-16T09:27:54.881Z,16.79
2017-05-16T09:29:03.934Z,16.78
2017-05-16T09:30:12.836Z,16.79
2017-05-16T09:31:21.727Z,16.78
2017-05-16T09:32:30.981Z,16.88
2017-05-16T09:33:40.526Z,16.82
2017-05-16T09:34:50.220Z,16.83
2017-05-16T09:36:00.096Z,16.85
2017-05-16T09:37:09.660Z,16.85
2017-05-16T09:38:18.879Z,16.97
2017-05-16T09:39:28.114Z,16.91
2017-05-16T09:40:37.537Z,16.89
2017-05-16T09:41:47.080Z,16.88
2017-05-16T09:42:56.323Z,17.03
2017-05-16T09:44:05.230Z,16.98
2017-05-16T09:45:14.130Z,17.06
2017-05-16T09:46:23.515Z,17.06
2017-05-16T09:47:33.085Z,16.98
2017-05-16T09:48:42.633Z,17.04
2017-05-16T09:49:51.858Z,17.11
2017-05-16T09:51:01.408Z,17.06
2017-05-16T09:52:10.728Z,17.16
2017-05-16T09:53:19.623Z,17.19
2017-05-16T09:54:28.525Z,17.3
2017-05-16T09:55:37.746Z,17.31
2017-05-16T09:56:46.646Z,17.4
2017-05-16T09:57:55.968Z,17.41
2017-05-16T09:59:05.842Z,17.41
2017-05-16T10:00:15.063Z,17.46
2017-05-16T10:01:23.956Z,17.48
2017-05-16T10:02:33.178Z,17.46
2017-05-16T10:03:42.078Z,17.44
2017-05-16T10:04:51.303Z,17.56
2017-05-16T10:06:00.531Z,17.62
2017-05-16T10:07:09.433Z,17.64
2017-05-16T10:08:18.658Z,17.66
2017-05-16T10:09:28.409Z,17.75
2017-05-16T10:10:37.633Z,17.66
2017-05-16T10:11:46.870Z,17.79
2017-05-16T10:12:56.743Z,17.82
2017-05-16T10:14:05.647Z,17.77
2017-05-16T10:15:14.597Z,17.84
2017-05-16T10:16:23.824Z,17.92
2017-05-16T10:17:33.099Z,17.93
2017-05-16T10:18:42.696Z,17.92
2017-05-16T10:19:52.249Z,17.86
2017-05-16T10:21:01.525Z,17.9
2017-05-16T10:22:10.755Z,17.97
2017-05-16T10:23:19.654Z,17.96
2017-05-16T10:24:29.204Z,17.92
2017-05-16T10:25:38.156Z,17.89
2017-05-16T10:26:47.483Z,17.95
2017-05-16T10:27:56.382Z,17.93
2017-05-16T10:29:05.610Z,17.95
2017-05-16T10:30:14.837Z,18.05
2017-05-16T10:31:24.059Z,18.08
2017-05-16T10:32:33.112Z,18.12
2017-05-16T10:33:42.341Z,18.18
2017-05-16T10:34:51.562Z,18.18
2017-05-16T10:37:09.705Z,18.05
2017-05-16T10:38:18.852Z,18.07
2017-05-16T10:39:28.083Z,18.12
2017-05-16T10:40:36.978Z,18.14
2017-05-16T10:41:46.200Z,18.21
2017-05-16T10:42:55.428Z,18.1
2017-05-16T10:44:05.185Z,18.35
2017-05-16T10:45:14.083Z,18.12
2017-05-16T10:46:23.310Z,18.14
2017-05-16T10:47:32.534Z,18.18
2017-05-16T10:48:41.432Z,18.2
2017-05-16T10:49:50.705Z,18.15
2017-05-16T10:51:00.261Z,18.27
2017-05-16T10:52:09.488Z,18.33
2017-05-16T10:53:18.712Z,18.36
2017-05-16T10:54:28.587Z,18.42
2017-05-16T10:55:37.645Z,18.41
2017-05-16T10:56:47.210Z,18.41
2017-05-16T10:57:56.436Z,18.41
2017-05-16T10:59:05.658Z,18.47
2017-05-16T11:00:14.565Z,18.47
2017-05-16T11:01:23.621Z,18.55
2017-05-16T11:02:32.516Z,18.57
2017-05-16T11:03:42.067Z,18.57
2017-05-16T11:04:51.954Z,18.57
2017-05-16T11:06:00.860Z,18.57
2017-05-16T11:07:10.230Z,18.54
2017-05-16T11:08:19.776Z,18.55
2017-05-16T11:09:28.726Z,18.47
2017-05-16T11:10:37.951Z,18.47
2017-05-16T11:11:46.851Z,18.6
2017-05-16T11:12:56.136Z,18.54
2017-05-16T11:14:05.358Z,18.65
2017-05-16T11:15:14.591Z,18.65
2017-05-16T11:16:23.815Z,18.75
2017-05-16T11:17:33.037Z,18.7
2017-05-16T11:18:42.414Z,18.8
2017-05-16T11:19:51.642Z,18.8
2017-05-16T11:21:00.543Z,18.87
2017-05-16T11:22:09.485Z,18.87
2017-05-16T11:23:18.381Z,18.85
2017-05-16T11:24:27.330Z,18.84
2017-05-16T11:25:36.231Z,18.98
2017-05-16T11:26:45.127Z,18.92
2017-05-16T11:27:54.043Z,19
2017-05-16T11:29:03.922Z,18.91
2017-05-16T11:30:13.628Z,18.95
2017-05-16T11:31:22.528Z,18.92
2017-05-16T11:32:31.429Z,18.95
2017-05-16T11:33:40.334Z,19
2017-05-16T11:34:49.557Z,19.04
2017-05-16T11:35:58.761Z,19.07
2017-05-16T11:37:07.665Z,19.04
2017-05-16T11:38:16.896Z,19.06
2017-05-16T11:39:25.798Z,19.06
2017-05-16T11:40:35.025Z,19.11
2017-05-16T11:41:44.415Z,19.11
2017-05-16T11:42:54.288Z,19.19
2017-05-16T11:44:03.193Z,19.11
2017-05-16T11:45:12.741Z,19.19
2017-05-16T11:46:21.642Z,19.14
2017-05-16T11:47:30.744Z,19.22
2017-05-16T11:48:40.630Z,19.18
2017-05-16T11:49:49.551Z,19.28
2017-05-16T11:50:58.446Z,19.25
2017-05-16T11:52:07.348Z,19.25
2017-05-16T11:53:17.051Z,19.31
2017-05-16T11:54:26.281Z,19.26
2017-05-16T11:55:35.179Z,19.26
2017-05-16T11:56:44.786Z,19.19
2017-05-16T11:57:53.686Z,19.22
2017-05-16T11:59:03.588Z,19.22
2017-05-16T12:00:12.486Z,19.21
2017-05-16T12:01:21.383Z,19.21
2017-05-16T12:02:30.286Z,19.18
2017-05-16T12:03:39.837Z,19.33
2017-05-16T12:04:49.041Z,19.32
2017-05-16T12:05:58.261Z,19.31
2017-05-16T12:07:07.172Z,19.29
2017-05-16T12:08:16.075Z,19.43
2017-05-16T12:09:25.307Z,19.39
2017-05-16T12:10:34.583Z,19.44
2017-05-16T12:11:43.485Z,19.43
2017-05-16T12:12:52.705Z,19.37
2017-05-16T12:14:01.936Z,19.41
2017-05-16T12:15:11.488Z,19.37
2017-05-16T12:16:20.695Z,19.4
2017-05-16T12:17:29.594Z,19.41
2017-05-16T12:18:38.821Z,19.41
2017-05-16T12:19:47.725Z,19.44
2017-05-16T12:20:56.946Z,19.41
2017-05-16T12:22:05.842Z,19.46
2017-05-16T12:23:14.742Z,19.48
2017-05-16T12:24:23.970Z,19.5
2017-05-16T12:25:32.869Z,19.62
2017-05-16T12:26:41.765Z,19.56
2017-05-16T12:27:50.812Z,19.54
2017-05-16T12:28:59.719Z,19.56
2017-05-16T12:30:09.270Z,19.46
2017-05-16T12:31:18.829Z,19.63
2017-05-16T12:32:27.737Z,19.56
2017-05-16T12:33:37.022Z,19.5
2017-05-16T12:34:45.921Z,19.55
2017-05-16T12:35:54.871Z,19.56
2017-05-16T12:37:04.097Z,19.54
2017-05-16T12:38:13.323Z,19.51
2017-05-16T12:39:22.376Z,19.55
2017-05-16T12:40:31.925Z,19.65
2017-05-16T12:41:40.828Z,19.59
2017-05-16T12:42:50.377Z,19.58
2017-05-16T12:43:59.276Z,19.55
2017-05-16T12:45:08.329Z,19.63
2017-05-16T12:46:17.552Z,19.68
2017-05-16T12:47:26.456Z,19.69
2017-05-16T12:48:35.677Z,19.63
2017-05-16T12:49:44.902Z,19.71
2017-05-16T12:50:53.859Z,19.74
2017-05-16T12:52:03.086Z,19.74
2017-05-16T12:53:12.310Z,19.66
2017-05-16T12:54:21.862Z,19.8
2017-05-16T12:55:30.762Z,19.8
2017-05-16T12:56:39.962Z,19.81
2017-05-16T12:57:48.861Z,19.84
2017-05-16T12:58:57.763Z,19.77
2017-05-16T13:00:06.660Z,19.76
2017-05-16T13:01:15.888Z,19.73
2017-05-16T13:02:25.166Z,19.73
2017-05-16T13:03:34.390Z,19.73
2017-05-16T13:04:43.619Z,19.8
2017-05-16T13:05:52.519Z,19.83
2017-05-16T13:07:01.745Z,19.74
2017-05-16T13:08:10.802Z,19.84
2017-05-16T13:09:19.700Z,19.78
2017-05-16T13:10:28.930Z,19.74
2017-05-16T13:11:38.156Z,19.87
2017-05-16T13:12:47.380Z,19.94
2017-05-16T13:13:56.982Z,20.03
2017-05-16T13:15:05.886Z,19.94
2017-05-16T13:16:15.149Z,19.88
2017-05-16T13:17:24.044Z,19.96
2017-05-16T13:18:33.271Z,20.02
2017-05-16T13:19:42.221Z,20.05
2017-05-16T13:20:51.449Z,19.96
2017-05-16T13:22:00.680Z,20.02
2017-05-16T13:23:09.912Z,20.02
2017-05-16T13:24:18.811Z,20.08
2017-05-16T13:25:27.861Z,20.08
2017-05-16T13:26:37.089Z,20.03
2017-05-16T13:27:46.317Z,20.03
2017-05-16T13:28:55.540Z,20.1
2017-05-16T13:30:05.099Z,20.2
2017-05-16T13:31:14.151Z,20.14
2017-05-16T13:32:23.053Z,20.16
2017-05-16T13:33:31.952Z,20.18
2017-05-16T13:34:40.849Z,20.32
2017-05-16T13:35:49.924Z,20.32
2017-05-16T13:37:00.167Z,20.35
2017-05-16T13:38:09.731Z,20.36
2017-05-16T13:39:18.988Z,20.36
2017-05-16T13:40:29.377Z,20.35
2017-05-16T13:41:39.516Z,20.28
2017-05-16T13:42:50.246Z,20.33
2017-05-16T13:44:00.057Z,20.35
2017-05-16T13:45:10.111Z,20.29
2017-05-16T13:46:19.030Z,20.5
2017-05-16T13:47:29.363Z,20.36
2017-05-16T13:48:39.162Z,20.41
2017-05-16T13:49:48.989Z,20.36
2017-05-16T13:50:59.452Z,20.5
2017-05-16T13:52:09.158Z,20.5
2017-05-16T13:53:19.297Z,20.48
2017-05-16T13:54:28.732Z,20.43
2017-05-16T13:55:40.152Z,20.51
2017-05-16T13:56:50.121Z,20.51
2017-05-16T13:57:59.738Z,20.57
2017-05-16T13:59:09.484Z,20.48
2017-05-16T14:00:19.144Z,20.58
2017-05-16T14:01:29.835Z,20.58
2017-05-16T14:02:39.073Z,20.67
2017-05-16T14:03:49.102Z,20.72
2017-05-16T14:04:59.381Z,20.73
2017-05-16T14:06:08.812Z,20.67
2017-05-16T14:07:18.888Z,20.64
2017-05-16T14:08:28.835Z,20.66
2017-05-16T14:09:37.844Z,20.69
2017-05-16T14:10:47.557Z,20.72
2017-05-16T14:11:58.539Z,20.72
2017-05-16T14:13:08.814Z,20.7
2017-05-16T14:14:18.195Z,20.79
2017-05-16T14:15:27.416Z,20.82
2017-05-16T14:16:37.445Z,20.77
2017-05-16T14:17:46.793Z,20.85
2017-05-16T14:18:55.699Z,20.91
2017-05-16T14:20:05.657Z,20.95
2017-05-16T14:21:16.445Z,20.91
2017-05-16T14:22:26.256Z,21.04
2017-05-16T14:23:36.911Z,21.1
2017-05-16T14:24:46.619Z,21.04
2017-05-16T14:25:56.948Z,21.04
2017-05-16T14:27:07.076Z,21.07
2017-05-16T14:28:17.082Z,21.01
2017-05-16T14:29:27.084Z,21.03
2017-05-16T14:30:37.196Z,21.19
2017-05-16T14:31:47.395Z,21.07
2017-05-16T14:32:57.584Z,21.09
2017-05-16T14:34:07.330Z,21.12
2017-05-16T14:35:17.957Z,21.09
2017-05-16T14:36:27.119Z,21.21
2017-05-16T14:37:37.990Z,21.25
2017-05-16T14:38:49.199Z,21.14
2017-05-16T14:39:59.518Z,21.09
2017-05-16T14:41:09.911Z,21.04
2017-05-16T14:42:20.015Z,21.04
2017-05-16T14:43:29.223Z,20.95
2017-05-16T14:44:38.465Z,21.06
2017-05-16T14:45:47.371Z,21.04
2017-05-16T14:46:56.628Z,21.06
2017-05-16T14:48:05.531Z,21.06
2017-05-16T14:49:14.764Z,21.01
2017-05-16T14:50:24.867Z,20.94
2017-05-16T14:51:35.187Z,21.04
2017-05-16T14:52:45.147Z,20.95
2017-05-16T14:53:54.286Z,20.95
2017-05-16T14:55:04.453Z,20.99
2017-05-16T14:56:14.240Z,21.03